Time;durP1;ratioP1;P1;durP2;ratioP2;P2;SDS_P1;SDS_P2;PMS_P1;PMS_P2;Temp;Humidity;BMP_temperature;BMP_pressure;BME280_temperature;BME280_humidity;BME280_pressure;Samples;Min_cycle;Max_cycle;Signal;HPM_P1;HPM_P2
2023/08/08 00:00:50;;;;;;;5.75;1.67;;;;;;;;;;5080938;28;20833;-57
2023/08/08 00:03:16;;;;;;;10.35;2.20;;;;;;;;;;5078601;28;20043;-58
2023/08/08 00:05:42;;;;;;;9.13;2.10;;;;;;;;;;5075549;28;20047;-58
2023/08/08 00:08:08;;;;;;;5.45;1.52;;;;;;;;;;5078813;28;20103;-57
2023/08/08 00:10:34;;;;;;;5.40;1.45;;;;;;;;;;5078692;28;20051;-57
2023/08/08 00:13:01;;;;;;;7.22;1.65;;;;;;;;;;5100033;28;20688;-58
2023/08/08 00:15:27;;;;;;;6.82;2.00;;;;;;;;;;5085489;28;20552;-57
2023/08/08 00:17:54;;;;;;;11.18;2.30;;;;;;;;;;5082919;28;20051;-57
2023/08/08 00:20:20;;;;;;;9.02;2.00;;;;;;;;;;5086752;28;20503;-58
2023/08/08 00:22:46;;;;;;;4.70;1.67;;;;;;;;;;5087820;28;21752;-58
2023/08/08 00:25:12;;;;;;;9.90;2.03;;;;;;;;;;5084878;28;20040;-57
2023/08/08 00:27:42;;;;;;;5.32;1.58;;;;;;;;;;5081617;28;20408;-58
2023/08/08 00:30:08;;;;;;;8.68;1.85;;;;;;;;;;5089302;28;20400;-58
2023/08/08 00:32:34;;;;;;;7.57;1.58;;;;;;;;;;5080729;28;20099;-57
2023/08/08 00:35:01;;;;;;;10.68;2.00;;;;;;;;;;5082467;28;20593;-58
2023/08/08 00:37:27;;;;;;;9.55;2.40;;;;;;;;;;5085242;28;20413;-57
2023/08/08 00:39:53;;;;;;;10.13;1.50;;;;;;;;;;5081309;28;20048;-58
2023/08/08 00:42:19;;;;;;;7.60;2.00;;;;;;;;;;5083288;28;20506;-57
2023/08/08 00:44:45;;;;;;;7.78;1.70;;;;;;;;;;5083752;28;20031;-57
2023/08/08 00:47:12;;;;;;;8.13;1.40;;;;;;;;;;5079609;28;20060;-58
2023/08/08 00:49:38;;;;;;;5.45;1.80;;;;;;;;;;5082601;28;20052;-58
2023/08/08 00:52:04;;;;;;;4.13;1.63;;;;;;;;;;5085990;28;20157;-58
2023/08/08 00:54:31;;;;;;;7.70;1.75;;;;;;;;;;5083469;28;20047;-57
2023/08/08 00:56:57;;;;;;;15.18;1.67;;;;;;;;;;5084446;28;20067;-57
2023/08/08 00:59:24;;;;;;;10.20;2.40;;;;;;;;;;5087338;28;20043;-58
2023/08/08 01:01:50;;;;;;;6.97;2.10;;;;;;;;;;5082373;28;20053;-57
2023/08/08 01:04:17;;;;;;;8.32;1.92;;;;;;;;;;5085143;28;20496;-57
2023/08/08 01:06:49;;;;;;;5.35;1.55;;;;;;;;;;5082196;28;20395;-58
2023/08/08 01:09:24;;;;;;;7.13;2.10;;;;;;;;;;5079363;28;20050;-58
2023/08/08 01:11:51;;;;;;;9.13;1.92;;;;;;;;;;5086181;28;20032;-57
2023/08/08 01:14:18;;;;;;;10.18;2.10;;;;;;;;;;5081587;28;20357;-58
2023/08/08 01:16:45;;;;;;;9.60;1.90;;;;;;;;;;5081011;28;20070;-57
2023/08/08 01:19:19;;;;;;;9.57;2.38;;;;;;;;;;5079612;28;20403;-57
2023/08/08 01:21:47;;;;;;;5.65;2.13;;;;;;;;;;5085443;28;20032;-58
2023/08/08 01:24:13;;;;;;;7.60;2.47;;;;;;;;;;5084811;28;20044;-58
2023/08/08 01:26:41;;;;;;;6.90;2.30;;;;;;;;;;5088774;28;20492;-57
2023/08/08 01:29:07;;;;;;;9.10;2.08;;;;;;;;;;5085071;28;20059;-58
2023/08/08 01:31:33;;;;;;;10.55;1.77;;;;;;;;;;5086263;28;20040;-58
2023/08/08 01:33:59;;;;;;;6.70;2.50;;;;;;;;;;5086223;28;20055;-57
2023/08/08 01:36:31;;;;;;;8.43;2.05;;;;;;;;;;5084932;28;20051;-57
2023/08/08 01:39:03;;;;;;;8.70;1.83;;;;;;;;;;5088993;28;20056;-58
2023/08/08 01:41:31;;;;;;;6.15;1.77;;;;;;;;;;5083562;28;20151;-57
2023/08/08 01:43:57;;;;;;;9.00;1.98;;;;;;;;;;5083720;28;20055;-57
2023/08/08 01:46:24;;;;;;;7.55;2.30;;;;;;;;;;5085666;28;20032;-58
2023/08/08 01:48:50;;;;;;;7.68;1.83;;;;;;;;;;5082553;28;20173;-58
2023/08/08 01:51:17;;;;;;;6.95;1.48;;;;;;;;;;5084929;28;20047;-57
2023/08/08 01:53:43;;;;;;;5.50;1.85;;;;;;;;;;5082318;28;20055;-57
2023/08/08 01:56:09;;;;;;;6.10;1.50;;;;;;;;;;5084746;28;20426;-58
2023/08/08 01:58:35;;;;;;;9.70;2.00;;;;;;;;;;5085283;28;20043;-57
2023/08/08 02:01:01;;;;;;;7.80;2.20;;;;;;;;;;5084974;28;20046;-58
2023/08/08 02:03:28;;;;;;;7.68;1.70;;;;;;;;;;5086048;28;20040;-58
2023/08/08 02:05:54;;;;;;;6.68;1.50;;;;;;;;;;5087231;28;20077;-57
2023/08/08 02:08:20;;;;;;;4.05;1.50;;;;;;;;;;5083581;28;20532;-57
2023/08/08 02:10:46;;;;;;;8.80;2.22;;;;;;;;;;5088126;28;20042;-57
2023/08/08 02:13:12;;;;;;;7.45;1.65;;;;;;;;;;5085860;28;20044;-57
2023/08/08 02:15:38;;;;;;;6.78;2.15;;;;;;;;;;5085692;28;20044;-58
2023/08/08 02:18:05;;;;;;;7.13;2.05;;;;;;;;;;5085136;28;20052;-58
2023/08/08 02:20:31;;;;;;;9.32;2.10;;;;;;;;;;5088273;28;20043;-57
2023/08/08 02:22:58;;;;;;;9.45;2.28;;;;;;;;;;5084136;28;20052;-58
2023/08/08 02:25:24;;;;;;;10.43;2.10;;;;;;;;;;5089067;28;20522;-57
2023/08/08 02:27:50;;;;;;;12.10;2.20;;;;;;;;;;5088953;28;20044;-58
2023/08/08 02:30:16;;;;;;;9.98;2.10;;;;;;;;;;5086022;28;20039;-58
2023/08/08 02:32:42;;;;;;;11.02;2.25;;;;;;;;;;5081430;28;20040;-57
2023/08/08 02:35:09;;;;;;;6.25;2.17;;;;;;;;;;5084901;28;20056;-58
2023/08/08 02:37:35;;;;;;;5.65;1.60;;;;;;;;;;5087762;28;20204;-58
2023/08/08 02:40:01;;;;;;;6.90;1.70;;;;;;;;;;5083729;28;20067;-58
2023/08/08 02:42:27;;;;;;;7.88;2.28;;;;;;;;;;5082877;28;20089;-58
2023/08/08 02:44:54;;;;;;;14.02;2.30;;;;;;;;;;5084407;28;20093;-57
2023/08/08 02:47:20;;;;;;;2.90;1.30;;;;;;;;;;5083381;28;20193;-58
2023/08/08 02:49:47;;;;;;;6.70;2.17;;;;;;;;;;5084019;28;20094;-57
2023/08/08 02:52:13;;;;;;;7.35;2.80;;;;;;;;;;5086547;28;20416;-58
2023/08/08 02:54:39;;;;;;;6.95;2.17;;;;;;;;;;5085546;28;20050;-58
2023/08/08 02:57:05;;;;;;;4.47;1.67;;;;;;;;;;5085810;28;20048;-57
2023/08/08 02:59:31;;;;;;;7.07;1.63;;;;;;;;;;5084319;28;20121;-57
2023/08/08 03:01:58;;;;;;;5.07;1.73;;;;;;;;;;5084806;28;20119;-57
2023/08/08 03:04:24;;;;;;;5.10;1.63;;;;;;;;;;5086485;28;20308;-58
2023/08/08 03:06:50;;;;;;;5.43;1.58;;;;;;;;;;5082844;28;20610;-57
2023/08/08 03:09:16;;;;;;;3.17;1.40;;;;;;;;;;5082541;28;20056;-57
2023/08/08 03:11:42;;;;;;;10.73;1.65;;;;;;;;;;5083214;28;20175;-57
2023/08/08 03:14:09;;;;;;;6.88;1.60;;;;;;;;;;5088654;28;20433;-58
2023/08/08 03:16:35;;;;;;;4.15;1.45;;;;;;;;;;5087010;28;20137;-57
2023/08/08 03:19:01;;;;;;;9.20;1.70;;;;;;;;;;5087158;28;20032;-57
2023/08/08 03:21:27;;;;;;;6.63;2.28;;;;;;;;;;5083292;28;20130;-58
2023/08/08 03:23:54;;;;;;;6.30;1.63;;;;;;;;;;5081567;28;20120;-57
2023/08/08 03:26:20;;;;;;;11.45;1.98;;;;;;;;;;5085797;28;20179;-58
2023/08/08 03:28:50;;;;;;;6.38;1.98;;;;;;;;;;5081882;28;20040;-58
2023/08/08 03:31:17;;;;;;;7.22;1.73;;;;;;;;;;5084982;28;20076;-58
2023/08/08 03:33:43;;;;;;;8.40;1.77;;;;;;;;;;5086933;28;20059;-57
2023/08/08 03:36:10;;;;;;;9.10;1.75;;;;;;;;;;5084343;28;20048;-58
2023/08/08 03:38:37;;;;;;;9.90;3.00;;;;;;;;;;5086430;28;20701;-58
2023/08/08 03:41:04;;;;;;;8.18;1.67;;;;;;;;;;5092065;28;20465;-58
2023/08/08 03:43:30;;;;;;;6.53;1.83;;;;;;;;;;5083703;28;20111;-58
2023/08/08 03:45:56;;;;;;;4.97;1.95;;;;;;;;;;5083639;28;20040;-57
2023/08/08 03:48:23;;;;;;;8.30;1.70;;;;;;;;;;5085090;28;20047;-58
2023/08/08 03:50:49;;;;;;;8.35;2.22;;;;;;;;;;5087668;28;20096;-58
2023/08/08 03:53:15;;;;;;;7.68;1.40;;;;;;;;;;5083985;28;20119;-58
2023/08/08 03:55:41;;;;;;;16.13;2.38;;;;;;;;;;5085661;28;20044;-58
2023/08/08 03:58:07;;;;;;;5.50;1.50;;;;;;;;;;5087218;28;20048;-58
2023/08/08 04:00:33;;;;;;;6.32;1.98;;;;;;;;;;5084295;28;20476;-58
2023/08/08 04:03:00;;;;;;;5.35;1.85;;;;;;;;;;5085705;28;20414;-57
2023/08/08 04:05:26;;;;;;;9.45;1.48;;;;;;;;;;5087959;28;20028;-57
2023/08/08 04:07:52;;;;;;;7.07;1.58;;;;;;;;;;5086606;28;20104;-57
2023/08/08 04:10:18;;;;;;;6.93;1.73;;;;;;;;;;5083390;28;20044;-57
2023/08/08 04:12:44;;;;;;;10.00;1.50;;;;;;;;;;5081999;28;20047;-57
2023/08/08 04:15:11;;;;;;;6.18;1.20;;;;;;;;;;5089678;28;20036;-57
2023/08/08 04:17:37;;;;;;;8.88;1.40;;;;;;;;;;5083776;28;20569;-57
2023/08/08 04:20:05;;;;;;;7.85;1.63;;;;;;;;;;5083781;28;20040;-57
2023/08/08 04:22:31;;;;;;;7.47;1.30;;;;;;;;;;5080052;28;20059;-57
2023/08/08 04:24:57;;;;;;;9.18;1.55;;;;;;;;;;5080342;28;20066;-57
2023/08/08 04:27:23;;;;;;;6.60;1.63;;;;;;;;;;5085995;28;20047;-57
2023/08/08 04:29:50;;;;;;;7.20;1.45;;;;;;;;;;5088772;28;20230;-57
2023/08/08 04:32:16;;;;;;;5.72;1.52;;;;;;;;;;5086846;28;20074;-57
2023/08/08 04:34:42;;;;;;;7.63;1.60;;;;;;;;;;5084266;28;20036;-58
2023/08/08 04:37:08;;;;;;;9.60;1.75;;;;;;;;;;5083461;28;20043;-58
2023/08/08 04:39:34;;;;;;;6.50;1.25;;;;;;;;;;5081041;28;20051;-57
2023/08/08 04:42:01;;;;;;;5.57;1.50;;;;;;;;;;5082193;28;20040;-57
2023/08/08 04:44:27;;;;;;;6.70;1.50;;;;;;;;;;5097950;28;20057;-57
2023/08/08 04:46:53;;;;;;;5.35;1.50;;;;;;;;;;5087635;28;20081;-57
2023/08/08 04:49:19;;;;;;;7.10;1.50;;;;;;;;;;5091313;28;20044;-57
2023/08/08 04:51:45;;;;;;;8.18;1.58;;;;;;;;;;5084772;28;20138;-58
2023/08/08 04:54:11;;;;;;;4.15;1.55;;;;;;;;;;5081911;28;20058;-57
2023/08/08 04:56:38;;;;;;;7.55;1.65;;;;;;;;;;5095288;28;20044;-57
2023/08/08 04:59:04;;;;;;;8.27;1.30;;;;;;;;;;5086541;28;20035;-57
2023/08/08 05:01:30;;;;;;;11.35;1.70;;;;;;;;;;5089335;28;20039;-57
2023/08/08 05:03:56;;;;;;;6.05;1.50;;;;;;;;;;5088123;28;20039;-58
2023/08/08 05:06:22;;;;;;;6.93;2.25;;;;;;;;;;5096520;28;20146;-57
2023/08/08 05:08:49;;;;;;;6.72;1.33;;;;;;;;;;5089330;28;20090;-57
2023/08/08 05:11:16;;;;;;;9.70;1.83;;;;;;;;;;5088714;28;20048;-58
2023/08/08 05:13:43;;;;;;;7.93;1.45;;;;;;;;;;5088105;28;20047;-57
2023/08/08 05:16:09;;;;;;;13.05;2.33;;;;;;;;;;5089654;28;20557;-58
2023/08/08 05:18:35;;;;;;;12.43;1.80;;;;;;;;;;5093492;28;20077;-58
2023/08/08 05:21:01;;;;;;;15.10;2.50;;;;;;;;;;5090575;28;20495;-58
2023/08/08 05:23:28;;;;;;;9.43;1.80;;;;;;;;;;5085716;28;20036;-57
2023/08/08 05:25:54;;;;;;;8.20;1.52;;;;;;;;;;5102366;28;20581;-57
2023/08/08 05:28:20;;;;;;;10.05;1.83;;;;;;;;;;5096787;28;20101;-57
2023/08/08 05:30:47;;;;;;;11.15;2.35;;;;;;;;;;5099062;28;20036;-58
2023/08/08 05:33:13;;;;;;;6.30;1.52;;;;;;;;;;5097907;28;20070;-57
2023/08/08 05:35:39;;;;;;;10.35;1.50;;;;;;;;;;5089651;28;20203;-57
2023/08/08 05:38:06;;;;;;;9.73;1.60;;;;;;;;;;5093641;28;20101;-57
2023/08/08 05:40:35;;;;;;;10.40;1.60;;;;;;;;;;5093385;28;20088;-57
2023/08/08 05:43:01;;;;;;;8.23;1.30;;;;;;;;;;5084104;28;20036;-59
2023/08/08 05:45:27;;;;;;;7.10;2.25;;;;;;;;;;5091691;28;20089;-58
2023/08/08 05:47:55;;;;;;;3.97;1.33;;;;;;;;;;5092067;28;20055;-58
2023/08/08 05:50:21;;;;;;;5.07;1.15;;;;;;;;;;5091058;28;20048;-59
2023/08/08 05:52:47;;;;;;;8.70;1.63;;;;;;;;;;5090058;28;20036;-59
2023/08/08 05:55:14;;;;;;;5.03;1.20;;;;;;;;;;5089807;28;20031;-59
2023/08/08 05:57:40;;;;;;;7.43;1.40;;;;;;;;;;5090372;28;20032;-59
2023/08/08 06:00:08;;;;;;;4.93;1.23;;;;;;;;;;5098973;28;20074;-59
2023/08/08 06:02:34;;;;;;;10.07;1.52;;;;;;;;;;5099104;28;20112;-58
2023/08/08 06:05:00;;;;;;;11.30;2.03;;;;;;;;;;5084125;28;20040;-58
2023/08/08 06:07:27;;;;;;;7.20;1.80;;;;;;;;;;5088519;28;20078;-58
2023/08/08 06:09:53;;;;;;;7.13;1.40;;;;;;;;;;5088985;28;20356;-61
2023/08/08 06:12:19;;;;;;;8.13;1.70;;;;;;;;;;5083819;28;20040;-58
2023/08/08 06:14:45;;;;;;;9.57;1.67;;;;;;;;;;5095726;28;20069;-57
2023/08/08 06:17:12;;;;;;;8.23;1.23;;;;;;;;;;5091929;28;20107;-58
2023/08/08 06:19:45;;;;;;;6.20;1.30;;;;;;;;;;5090957;28;20529;-59
2023/08/08 06:22:21;;;;;;;9.18;1.30;;;;;;;;;;5101552;28;20031;-58
2023/08/08 06:24:58;;;;;;;9.68;1.70;;;;;;;;;;5097483;28;20184;-58
2023/08/08 06:27:25;;;;;;;9.30;1.48;;;;;;;;;;5106131;28;20040;-58
2023/08/08 06:29:51;;;;;;;8.02;1.63;;;;;;;;;;5100947;28;20046;-58
2023/08/08 06:32:36;;;;;;;7.93;1.17;;;;;;;;;;5095369;28;20477;-59
2023/08/08 06:35:03;;;;;;;8.20;1.85;;;;;;;;;;5105840;28;20035;-58
2023/08/08 06:37:29;;;;;;;7.28;1.63;;;;;;;;;;5106504;28;20100;-59
2023/08/08 06:39:56;;;;;;;6.68;1.48;;;;;;;;;;5106060;28;20106;-58
2023/08/08 06:42:25;;;;;;;10.68;1.60;;;;;;;;;;5102773;28;20119;-59
2023/08/08 06:44:51;;;;;;;11.40;1.80;;;;;;;;;;5111655;28;20123;-58
2023/08/08 06:47:17;;;;;;;11.15;2.63;;;;;;;;;;5094523;28;20376;-58
2023/08/08 06:49:44;;;;;;;6.63;1.38;;;;;;;;;;5094121;28;20413;-58
2023/08/08 06:52:10;;;;;;;6.13;1.40;;;;;;;;;;5102781;28;20438;-58
2023/08/08 06:54:36;;;;;;;5.28;1.27;;;;;;;;;;5089973;28;20067;-59
2023/08/08 06:57:02;;;;;;;8.32;1.23;;;;;;;;;;5092198;28;20051;-59
2023/08/08 06:59:29;;;;;;;9.88;2.03;;;;;;;;;;5102504;28;20085;-59
2023/08/08 07:01:56;;;;;;;8.70;1.40;;;;;;;;;;5095559;28;20043;-58
2023/08/08 07:04:22;;;;;;;7.63;1.70;;;;;;;;;;5086894;28;20043;-59
2023/08/08 07:06:48;;;;;;;12.45;2.17;;;;;;;;;;5087984;28;20032;-59
2023/08/08 07:09:15;;;;;;;12.55;1.80;;;;;;;;;;5092236;28;20043;-59
2023/08/08 07:11:41;;;;;;;8.32;1.20;;;;;;;;;;5096237;28;20506;-58
2023/08/08 07:14:07;;;;;;;8.23;1.52;;;;;;;;;;5091597;28;20459;-59
2023/08/08 07:16:33;;;;;;;10.77;2.10;;;;;;;;;;5094820;28;20106;-60
2023/08/08 07:19:00;;;;;;;7.30;1.30;;;;;;;;;;5093370;28;20047;-59
2023/08/08 07:21:26;;;;;;;15.50;1.40;;;;;;;;;;5086640;28;20032;-58
2023/08/08 07:23:52;;;;;;;7.75;1.75;;;;;;;;;;5087566;28;20079;-59
2023/08/08 07:26:19;;;;;;;5.80;1.10;;;;;;;;;;5102354;28;20043;-59
2023/08/08 07:28:45;;;;;;;6.82;2.22;;;;;;;;;;5091614;28;20043;-59
2023/08/08 07:31:11;;;;;;;7.28;1.15;;;;;;;;;;5087913;28;20377;-59
2023/08/08 07:33:37;;;;;;;7.60;1.30;;;;;;;;;;5095507;28;20106;-60
2023/08/08 07:36:04;;;;;;;6.50;1.63;;;;;;;;;;5089714;28;20051;-61
2023/08/08 07:38:33;;;;;;;7.07;1.80;;;;;;;;;;5090796;28;20172;-69
2023/08/08 07:40:59;;;;;;;5.70;1.65;;;;;;;;;;5097207;28;21930;-60
2023/08/08 07:43:25;;;;;;;9.55;1.75;;;;;;;;;;5091572;28;20047;-60
2023/08/08 07:45:51;;;;;;;6.60;1.10;;;;;;;;;;5095530;28;20089;-59
2023/08/08 07:48:18;;;;;;;6.88;1.42;;;;;;;;;;5092590;28;20470;-59
2023/08/08 07:50:44;;;;;;;6.00;1.10;;;;;;;;;;5088581;28;20415;-58
2023/08/08 07:53:11;;;;;;;8.35;1.77;;;;;;;;;;5086380;28;20440;-59
2023/08/08 07:55:37;;;;;;;6.85;1.13;;;;;;;;;;5089874;28;20162;-59
2023/08/08 07:58:04;;;;;;;7.65;2.10;;;;;;;;;;5086555;28;20518;-59
2023/08/08 08:00:30;;;;;;;7.57;1.15;;;;;;;;;;5105279;28;20047;-59
2023/08/08 08:02:56;;;;;;;9.00;1.35;;;;;;;;;;5093477;28;20039;-64
2023/08/08 08:05:22;;;;;;;14.40;2.22;;;;;;;;;;5108362;28;20042;-59
2023/08/08 08:07:49;;;;;;;6.13;1.20;;;;;;;;;;5102032;28;20054;-58
2023/08/08 08:10:15;;;;;;;8.88;1.48;;;;;;;;;;5099560;28;20168;-59
2023/08/08 08:12:42;;;;;;;9.48;1.98;;;;;;;;;;5092663;28;20041;-59
2023/08/08 08:15:09;;;;;;;7.25;1.45;;;;;;;;;;5104566;28;20075;-59
2023/08/08 08:17:35;;;;;;;7.85;1.40;;;;;;;;;;5098622;28;20082;-59
2023/08/08 08:20:05;;;;;;;7.68;1.45;;;;;;;;;;5096809;28;20480;-59
2023/08/08 08:22:32;;;;;;;7.80;1.20;;;;;;;;;;5089503;28;20039;-59
2023/08/08 08:24:58;;;;;;;7.30;1.45;;;;;;;;;;5094334;28;20047;-59
2023/08/08 08:27:24;;;;;;;7.70;1.80;;;;;;;;;;5096986;28;20044;-59
2023/08/08 08:29:50;;;;;;;5.82;0.90;;;;;;;;;;5099375;28;20044;-59
2023/08/08 08:32:16;;;;;;;5.35;1.10;;;;;;;;;;5099669;28;20044;-59
2023/08/08 08:34:44;;;;;;;11.43;1.20;;;;;;;;;;5114585;28;20096;-59
2023/08/08 08:37:10;;;;;;;8.90;1.10;;;;;;;;;;5111651;28;20108;-59
2023/08/08 08:39:36;;;;;;;9.10;1.40;;;;;;;;;;5114176;28;20083;-59
2023/08/08 08:42:04;;;;;;;7.40;1.30;;;;;;;;;;5102469;28;20043;-59
2023/08/08 08:44:31;;;;;;;7.90;1.25;;;;;;;;;;5095268;28;20492;-59
2023/08/08 08:47:12;;;;;;;7.65;1.20;;;;;;;;;;5094474;28;20062;-59
2023/08/08 08:49:38;;;;;;;5.82;1.30;;;;;;;;;;5105824;28;20096;-59
2023/08/08 08:52:05;;;;;;;7.90;1.55;;;;;;;;;;5094827;28;20040;-59
2023/08/08 08:54:32;;;;;;;6.55;1.20;;;;;;;;;;5094173;28;20044;-59
2023/08/08 08:56:59;;;;;;;10.68;1.20;;;;;;;;;;5090295;28;20049;-58
2023/08/08 08:59:25;;;;;;;7.68;1.42;;;;;;;;;;5092596;28;20122;-59
2023/08/08 09:01:53;;;;;;;9.90;1.38;;;;;;;;;;5093785;28;20121;-59
2023/08/08 09:04:21;;;;;;;6.18;1.10;;;;;;;;;;5090174;28;20036;-59
2023/08/08 09:06:49;;;;;;;8.75;1.48;;;;;;;;;;5087565;28;20054;-59
2023/08/08 09:09:15;;;;;;;7.15;1.42;;;;;;;;;;5090040;28;20036;-59
2023/08/08 09:11:51;;;;;;;6.00;1.08;;;;;;;;;;5089444;28;20491;-59
2023/08/08 09:14:19;;;;;;;5.32;1.00;;;;;;;;;;5092765;28;20032;-59
2023/08/08 09:16:45;;;;;;;10.10;1.13;;;;;;;;;;5088946;28;20552;-59
2023/08/08 09:19:12;;;;;;;5.97;1.33;;;;;;;;;;5095111;28;20063;-59
2023/08/08 09:21:38;;;;;;;7.00;1.45;;;;;;;;;;5090804;28;20036;-59
2023/08/08 09:24:05;;;;;;;4.20;0.95;;;;;;;;;;5108551;28;20040;-59
2023/08/08 09:26:31;;;;;;;5.07;1.27;;;;;;;;;;5091943;28;20226;-59
2023/08/08 09:28:57;;;;;;;7.07;1.00;;;;;;;;;;5092388;28;20172;-59
2023/08/08 09:31:27;;;;;;;11.48;1.50;;;;;;;;;;5087546;28;20056;-59
2023/08/08 09:33:59;;;;;;;7.15;1.35;;;;;;;;;;5099141;28;20032;-59
2023/08/08 09:36:25;;;;;;;7.90;1.93;;;;;;;;;;5098107;28;20043;-59
2023/08/08 09:38:53;;;;;;;6.80;1.05;;;;;;;;;;5089551;27;20359;-59
2023/08/08 09:41:20;;;;;;;9.35;1.15;;;;;;;;;;5091038;28;20529;-59
2023/08/08 09:43:50;;;;;;;5.95;1.30;;;;;;;;;;5087780;28;20082;-59
2023/08/08 09:46:17;;;;;;;13.50;2.30;;;;;;;;;;5091150;28;20046;-59
2023/08/08 09:48:43;;;;;;;8.48;2.42;;;;;;;;;;5088046;28;20512;-59
2023/08/08 09:51:09;;;;;;;8.88;1.73;;;;;;;;;;5094876;28;20415;-60
2023/08/08 09:53:36;;;;;;;5.88;1.05;;;;;;;;;;5093245;28;20445;-60
2023/08/08 09:56:03;;;;;;;7.15;1.60;;;;;;;;;;5104733;28;20458;-59
2023/08/08 09:58:30;;;;;;;9.18;1.55;;;;;;;;;;5091579;28;20084;-59
2023/08/08 10:00:56;;;;;;;6.93;1.40;;;;;;;;;;5095241;28;20039;-60
2023/08/08 10:03:23;;;;;;;6.97;1.50;;;;;;;;;;5094383;28;20044;-60
2023/08/08 10:05:49;;;;;;;7.47;1.20;;;;;;;;;;5097066;28;20065;-60
2023/08/08 10:08:16;;;;;;;7.72;1.70;;;;;;;;;;5103979;28;20615;-59
2023/08/08 10:10:44;;;;;;;11.38;1.30;;;;;;;;;;5104229;28;20036;-59
2023/08/08 10:13:11;;;;;;;7.43;1.98;;;;;;;;;;5109093;28;20046;-59
2023/08/08 10:15:40;;;;;;;6.10;1.02;;;;;;;;;;5103624;28;20035;-59
2023/08/08 10:18:07;;;;;;;5.97;1.40;;;;;;;;;;5085047;28;20039;-59
2023/08/08 10:20:37;;;;;;;4.90;1.00;;;;;;;;;;5097841;28;20171;-59
2023/08/08 10:23:03;;;;;;;7.43;1.85;;;;;;;;;;5097416;28;20048;-59
2023/08/08 10:25:31;;;;;;;7.15;1.02;;;;;;;;;;5110458;28;20051;-59
2023/08/08 10:28:10;;;;;;;9.57;1.20;;;;;;;;;;5108205;28;20051;-59
2023/08/08 10:30:46;;;;;;;12.75;1.83;;;;;;;;;;5101208;28;20055;-59
2023/08/08 10:33:19;;;;;;;9.02;1.65;;;;;;;;;;5112683;28;20040;-59
2023/08/08 10:35:54;;;;;;;5.07;1.33;;;;;;;;;;5106019;27;20092;-59
2023/08/08 10:38:22;;;;;;;4.00;1.00;;;;;;;;;;5096563;28;20062;-59
2023/08/08 10:40:48;;;;;;;6.90;1.23;;;;;;;;;;5103959;28;20073;-60
2023/08/08 10:43:14;;;;;;;5.97;0.98;;;;;;;;;;5112555;28;20035;-60
2023/08/08 10:45:44;;;;;;;8.63;1.15;;;;;;;;;;5102429;28;20492;-60
2023/08/08 10:48:11;;;;;;;7.70;1.40;;;;;;;;;;5091251;28;20066;-60
2023/08/08 10:50:41;;;;;;;3.78;1.17;;;;;;;;;;5096086;28;20101;-60
2023/08/08 10:53:09;;;;;;;6.18;1.17;;;;;;;;;;5111550;27;20036;-59
2023/08/08 10:55:36;;;;;;;2.80;0.80;;;;;;;;;;5111959;28;20027;-60
2023/08/08 10:58:10;;;;;;;6.55;1.20;;;;;;;;;;5105453;28;20119;-59
2023/08/08 11:00:39;;;;;;;6.63;1.50;;;;;;;;;;5093704;28;20078;-60
2023/08/08 11:03:05;;;;;;;6.38;1.20;;;;;;;;;;5105498;28;20031;-59
2023/08/08 11:05:33;;;;;;;3.63;1.05;;;;;;;;;;5098126;28;20455;-59
2023/08/08 11:08:00;;;;;;;7.05;1.50;;;;;;;;;;5092954;28;20439;-59
2023/08/08 11:10:30;;;;;;;10.38;2.30;;;;;;;;;;5093783;28;20166;-59
2023/08/08 11:12:58;;;;;;;5.00;1.20;;;;;;;;;;5089202;28;20471;-59
2023/08/08 11:15:24;;;;;;;5.25;1.02;;;;;;;;;;5090910;28;20052;-59
2023/08/08 11:17:52;;;;;;;7.38;1.58;;;;;;;;;;5091409;28;20058;-59
2023/08/08 11:20:18;;;;;;;5.22;1.10;;;;;;;;;;5088030;28;20052;-59
2023/08/08 11:22:44;;;;;;;5.95;1.20;;;;;;;;;;5088428;28;20044;-59
2023/08/08 11:25:11;;;;;;;10.00;1.17;;;;;;;;;;5090896;28;20144;-59
2023/08/08 11:27:37;;;;;;;5.05;1.10;;;;;;;;;;5089638;28;20036;-59
2023/08/08 11:30:04;;;;;;;6.63;1.30;;;;;;;;;;5090035;28;20146;-60
2023/08/08 11:32:30;;;;;;;9.45;1.30;;;;;;;;;;5089989;28;20047;-60
2023/08/08 11:34:56;;;;;;;30.02;2.95;;;;;;;;;;5089368;28;20865;-59
2023/08/08 11:37:23;;;;;;;4.90;1.23;;;;;;;;;;5090502;28;20043;-59
2023/08/08 11:39:49;;;;;;;6.10;1.10;;;;;;;;;;5089602;28;20664;-59
2023/08/08 11:42:15;;;;;;;6.53;1.33;;;;;;;;;;5087457;28;20038;-59
2023/08/08 11:44:42;;;;;;;6.65;1.20;;;;;;;;;;5083617;28;20073;-59
2023/08/08 11:47:08;;;;;;;6.18;1.42;;;;;;;;;;5089151;28;20171;-60
2023/08/08 11:49:42;;;;;;;7.18;1.40;;;;;;;;;;5092681;28;20360;-59
2023/08/08 11:52:08;;;;;;;;;;;;;;;;;;5092335;28;20045;-60
2023/08/08 11:54:34;;;;;;;7.88;1.88;;;;;;;;;;5090621;28;19926;-59
2023/08/08 11:57:03;;;;;;;8.05;1.35;;;;;;;;;;5090073;28;20040;-59
2023/08/08 11:59:31;;;;;;;8.32;1.45;;;;;;;;;;5092060;28;20046;-59
2023/08/08 12:01:57;;;;;;;12.52;1.65;;;;;;;;;;5094866;28;20056;-59
2023/08/08 12:04:24;;;;;;;4.18;1.25;;;;;;;;;;5092426;28;20163;-59
2023/08/08 12:06:51;;;;;;;7.35;1.45;;;;;;;;;;5111455;28;20040;-59
2023/08/08 12:09:17;;;;;;;5.47;1.20;;;;;;;;;;5109517;28;20087;-59
2023/08/08 12:11:44;;;;;;;5.50;1.13;;;;;;;;;;5111389;28;20062;-59
2023/08/08 12:14:13;;;;;;;4.85;1.20;;;;;;;;;;5098871;28;20040;-59
2023/08/08 12:16:39;;;;;;;7.80;1.38;;;;;;;;;;5098163;28;20127;-59
2023/08/08 12:19:12;;;;;;;8.98;1.73;;;;;;;;;;5108460;28;20348;-59
2023/08/08 12:21:38;;;;;;;4.43;1.00;;;;;;;;;;5090523;28;20102;-59
2023/08/08 12:24:05;;;;;;;8.15;1.25;;;;;;;;;;5092820;28;20081;-59
2023/08/08 12:26:32;;;;;;;6.43;1.33;;;;;;;;;;5093887;28;20048;-59
2023/08/08 12:28:58;;;;;;;11.25;1.92;;;;;;;;;;5092803;28;20498;-59
2023/08/08 12:31:24;;;;;;;6.78;1.35;;;;;;;;;;5092962;28;20136;-59
2023/08/08 12:33:51;;;;;;;7.28;1.40;;;;;;;;;;5093278;28;20078;-59
2023/08/08 12:36:17;;;;;;;8.82;1.58;;;;;;;;;;5096365;28;20411;-60
2023/08/08 12:38:43;;;;;;;6.10;1.27;;;;;;;;;;5094429;28;20040;-58
2023/08/08 12:41:10;;;;;;;8.10;1.40;;;;;;;;;;5091567;28;20059;-58
2023/08/08 12:43:37;;;;;;;8.57;1.27;;;;;;;;;;5095635;28;20040;-58
2023/08/08 12:46:03;;;;;;;6.22;1.20;;;;;;;;;;5110038;28;20059;-58
2023/08/08 12:48:29;;;;;;;7.45;1.50;;;;;;;;;;5108207;28;20056;-58
2023/08/08 12:50:55;;;;;;;5.07;1.20;;;;;;;;;;5109252;28;20039;-58
2023/08/08 12:53:24;;;;;;;9.65;1.35;;;;;;;;;;5089193;28;20063;-58
2023/08/08 12:55:50;;;;;;;6.60;1.45;;;;;;;;;;5109837;28;20111;-59
2023/08/08 12:58:17;;;;;;;6.00;1.30;;;;;;;;;;5108207;28;20081;-58
2023/08/08 13:00:43;;;;;;;5.70;1.27;;;;;;;;;;5099765;28;20229;-58
2023/08/08 13:03:12;;;;;;;5.18;1.15;;;;;;;;;;5106878;28;20390;-59
2023/08/08 13:05:38;;;;;;;7.63;1.55;;;;;;;;;;5109689;28;20040;-58
2023/08/08 13:08:04;;;;;;;7.03;1.10;;;;;;;;;;5107298;28;20490;-58
2023/08/08 13:10:31;;;;;;;5.03;1.00;;;;;;;;;;5105669;28;20479;-58
2023/08/08 13:12:57;;;;;;;3.92;1.00;;;;;;;;;;5102641;28;20531;-58
2023/08/08 13:15:24;;;;;;;4.53;1.10;;;;;;;;;;5108950;28;20055;-58
2023/08/08 13:17:50;;;;;;;8.10;1.30;;;;;;;;;;5103143;28;20078;-58
2023/08/08 13:20:16;;;;;;;5.38;1.20;;;;;;;;;;5112504;28;20122;-58
2023/08/08 13:22:42;;;;;;;8.55;1.38;;;;;;;;;;5109777;28;20489;-58
2023/08/08 13:25:09;;;;;;;6.55;1.10;;;;;;;;;;5102540;28;20087;-58
2023/08/08 13:27:35;;;;;;;4.82;0.98;;;;;;;;;;5105908;28;20032;-59
2023/08/08 13:30:01;;;;;;;8.05;1.02;;;;;;;;;;5100249;28;20048;-60
2023/08/08 13:32:28;;;;;;;6.47;1.20;;;;;;;;;;5114131;28;20055;-60
2023/08/08 13:34:54;;;;;;;6.60;1.23;;;;;;;;;;5113027;28;20035;-60
2023/08/08 13:37:20;;;;;;;3.90;1.20;;;;;;;;;;5103821;28;20395;-59
2023/08/08 13:39:46;;;;;;;6.18;1.20;;;;;;;;;;5110447;28;20081;-60
2023/08/08 13:42:13;;;;;;;7.25;1.48;;;;;;;;;;5094082;27;20484;-59
2023/08/08 13:44:39;;;;;;;5.13;1.13;;;;;;;;;;5107220;28;20039;-59
2023/08/08 13:47:05;;;;;;;5.60;1.40;;;;;;;;;;5100090;28;20047;-60
2023/08/08 13:49:31;;;;;;;4.47;0.95;;;;;;;;;;5097303;27;20123;-60
2023/08/08 13:51:58;;;;;;;2.60;0.88;;;;;;;;;;5096504;28;20047;-59
2023/08/08 13:54:24;;;;;;;4.60;1.13;;;;;;;;;;5094970;28;20052;-60
2023/08/08 13:56:50;;;;;;;4.68;1.10;;;;;;;;;;5088757;28;20036;-59
2023/08/08 13:59:16;;;;;;;5.82;1.10;;;;;;;;;;5103000;28;20054;-59
2023/08/08 14:01:43;;;;;;;6.20;1.23;;;;;;;;;;5089456;28;20045;-59
2023/08/08 14:04:11;;;;;;;4.50;1.20;;;;;;;;;;5092441;28;20043;-59
2023/08/08 14:06:38;;;;;;;5.43;1.33;;;;;;;;;;5099539;28;20463;-60
2023/08/08 14:09:07;;;;;;;4.13;0.90;;;;;;;;;;5093540;28;20073;-59
2023/08/08 14:11:33;;;;;;;6.40;1.20;;;;;;;;;;5094289;27;20428;-59
2023/08/08 14:14:00;;;;;;;4.20;1.00;;;;;;;;;;5093925;28;20044;-59
2023/08/08 14:16:26;;;;;;;8.48;1.75;;;;;;;;;;5098170;28;20044;-59
2023/08/08 14:18:52;;;;;;;6.28;1.58;;;;;;;;;;5098860;28;20128;-59
2023/08/08 14:21:18;;;;;;;6.30;1.20;;;;;;;;;;5096502;28;20437;-59
2023/08/08 14:23:45;;;;;;;5.30;0.98;;;;;;;;;;5092227;28;20043;-59
2023/08/08 14:26:11;;;;;;;6.43;1.17;;;;;;;;;;5086286;28;20063;-59
2023/08/08 14:28:37;;;;;;;7.50;1.30;;;;;;;;;;5092414;28;20036;-59
2023/08/08 14:31:06;;;;;;;6.00;1.33;;;;;;;;;;5098267;28;20048;-59
2023/08/08 14:33:32;;;;;;;5.03;1.17;;;;;;;;;;5105645;28;20564;-59
2023/08/08 14:35:59;;;;;;;4.05;1.10;;;;;;;;;;5113029;28;20179;-59
2023/08/08 14:38:25;;;;;;;7.93;1.27;;;;;;;;;;5105282;28;20036;-60